PST,Max TemperatureF,Mean TemperatureF,Min TemperatureF,Max Dew PointF,MeanDew PointF,Min DewpointF,Max Humidity, Mean Humidity, Min Humidity, Max Sea Level PressureIn, Mean Sea Level PressureIn, Min Sea Level PressureIn, Max VisibilityMiles, Mean VisibilityMiles, Min VisibilityMiles, Max Wind SpeedMPH, Mean Wind SpeedMPH, Max Gust SpeedMPH,PrecipitationIn, CloudCover, Events, WindDirDegrees
2013-1-1,46,38,29,43,40,36,93,85,76,30.33,30.12,29.94,9,8,3,44,23,53,0.00,8,Rain,145
2013-1-2,46,42,39,45,42,37,100,93,87,29.98,29.88,29.80,9,6,3,29,22,37,0.00,8,Rain,144
2013-1-3,46,42,39,43,40,37,100,92,87,29.98,29.83,29.73,9,6,1,29,10,37,0.59,8,Rain,262
2013-1-4,46,40,34,43,41,34,100,90,81,30.04,29.92,29.80,9,6,2,41,23,51,0.28,7,Rain,140
2013-1-5,46,40,35,43,40,34,100,88,81,29.79,29.67,29.57,9,5,2,48,36,64,0.20,7,Rain,149
2013-1-6,46,38,31,45,41,30,100,94,81,29.81,29.62,29.47,9,7,3,30,11,37,0.00,7,Rain,164
2013-1-7,45,41,37,43,36,32,100,80,70,29.90,29.68,29.47,9,9,5,38,16,46,0.00,5,Rain,246
2013-1-8,39,36,34,37,35,32,100,91,75,29.91,29.63,29.51,9,8,3,21,10,22,0.00,8,Rain,297
2013-1-9,41,38,36,36,31,27,93,75,65,30.16,29.83,29.56,9,9,9,23,16,26,0.00,3,,300
2013-1-10,40,38,35,36,33,27,93,80,61,30.29,30.24,30.17,9,9,9,18,12,25,0.00,5,,261
2013-1-11,39,34,30,37,36,30,100,93,81,30.30,30.22,30.19,9,7,2,12,6,,0.00,7,Rain,176
2013-1-12,43,38,34,41,38,36,100,94,87,30.41,30.34,30.23,9,8,2,7,4,,0.00,8,,244
2013-1-13,45,41,37,43,40,37,100,93,87,30.43,30.41,30.39,9,6,1,10,5,,0.00,8,Rain,156
2013-1-14,46,40,35,43,40,34,100,90,81,30.53,30.50,30.43,9,7,0,18,10,23,0.00,2,Fog,246
2013-1-15,47,39,31,41,38,32,93,85,81,30.53,30.48,30.44,9,9,9,21,9,28,0.00,1,,221
2013-1-16,50,43,36,45,41,37,93,86,76,30.49,30.36,30.20,9,9,9,14,8,20,0.00,5,,197
2013-1-17,47,44,41,43,41,37,93,85,71,30.17,30.02,29.92,9,9,5,25,8,31,0.00,8,Rain,182
2013-1-18,43,41,39,39,38,36,100,91,76,30.26,30.21,30.06,9,7,2,13,7,,0.00,7,,229
2013-1-19,45,41,37,43,40,37,100,97,87,30.25,30.23,30.21,9,5,0,20,5,26,0.00,8,Fog,225
2013-1-20,44,42,41,41,39,37,93,87,76,30.28,30.25,30.22,9,9,9,10,6,,0.00,8,,162
2013-1-21,45,41,37,41,39,37,100,92,81,30.23,30.05,29.80,9,8,3,30,10,36,0.00,7,Rain,144
2013-1-22,46,44,41,45,43,39,100,92,81,29.80,29.69,29.63,9,6,2,32,26,41,0.00,8,Rain,139
2013-1-23,44,40,37,41,38,36,100,89,81,29.81,29.72,29.67,9,9,9,12,6,,0.00,7,Rain,211
2013-1-24,44,41,38,43,39,36,100,89,81,29.83,29.51,29.25,9,6,1,62,22,75,0.31,8,Rain,150
2013-1-25,44,42,39,41,39,36,100,92,87,29.70,29.55,29.48,9,9,5,15,9,24,0.00,7,Rain,218
2013-1-26,43,39,35,37,36,34,93,88,76,29.85,29.81,29.71,9,9,9,20,9,28,0.00,6,Rain,242
2013-1-27,40,38,35,37,34,25,93,84,56,29.98,29.88,29.82,9,9,9,23,12,29,0.00,7,Rain,249
2013-1-28,40,38,36,37,36,34,93,90,87,30.11,29.96,29.87,9,9,5,17,11,,0.00,8,Rain,263
2013-1-29,48,42,36,45,39,34,100,92,81,30.20,30.07,30.00,9,8,3,22,9,28,0.00,8,Rain,194
2013-1-30,46,42,39,45,42,37,100,93,76,30.24,30.08,29.89,9,8,4,24,9,28,0.00,8,Rain,148
2013-1-31,46,44,41,45,42,37,100,90,81,30.17,30.01,29.90,9,8,2,20,8,17,0.00,7,Rain,214